Shrewsbury, MA (01545)

8:37 PM EDT on August 04, 2015 (GMT -0400)
Jamestown Heights | | Change Station
CLOSE
Current Station
Personal Weather Station
Location: Shrewsbury, MA
Elevation: 605 ft
Nearby Weather Stations

Elev 605 ft 42.32 °N, 71.70 °W | Updated 2 minutes ago

Mostly Cloudy
Mostly Cloudy
69.7 °F
Feels Like 69.7 °F
N
0.0
Wind Variable Wind from SSW
Gusts 6.0 mph

Today
High -- | Low -- °F
--% Chance of Precip.
Yesterday
High -- | Low -- °F
Precip. -- in
5:42 AM 8:02 PM
Waning Gibbous, 73% visible
Pressure 29.88 in
Visibility 10.0 miles
Clouds Few 7000 ft
Dew Point 68 °F
Humidity 95%
Rainfall 0.36 in
Snow Depth Not available.
UV 0 out of 12
Pollen 5.30 out of 12
Air Quality Not available.
Flu Activity Not available.
METAR KORH 042354Z AUTO 24005KT 10SM FEW070 21/19 A2989 RMK AO2 SLP118 60031 T02060189 10283 20178 51015

More Conditions Fewer Conditions

Pressure 29.88 in
Visibility 10.0 miles
Clouds Few 7000 ft
Dew Point 68 °F
Humidity 95%
Rainfall 0.36 in
Snow Depth Not available.
UV 0 out of 12
Pollen 5.30 out of 12
Air Quality Not available.
Flu Activity Not available.
METAR KORH 042354Z AUTO 24005KT 10SM FEW070 21/19 A2989 RMK AO2 SLP118 60031 T02060189 10283 20178 51015

More Conditions Fewer Conditions

10-Day Weather Forecast

×

Almanac

Astronomy

Aug. 04, 2015 Rise Set
Actual Time
Civil Twilight
Nautical Twilight
Astronomical Twilight
Moon
Length of Visible Light
Length of Day
Tomorrow will be .
, % of the Moon is Illuminated

Today's Extremes

State Highs State Lows

Community

WunderPhotos

Upload Photos

1,844,033 photos uploaded!

WunderBlogs® & News

Nearby

Air Quality

  Air Quality AQ Index Pollutant
Not available.

Snow Depth

Station Depth Elevation

Earthquake Activity

City Distance Mag. Time & Date
Minimum magnitude displayed is 2.5.

Coastal Water Temperatures

Place Temperature

Stations

Nearby Weather Stations

Station Location Temp. Windchill Dew Point Humidity Wind Precip. Elev Updated Type